Butendiek

EKBU · 丹麦

使用的METAR站距离机场37 km。
罗盘
风向 的 风向 220° 直升机
风: 11 kt, 4 beaufort
0 ft 1.000 2.000 3.000 4.000 5.000
Cloud Cloud Cloud Cloud
SCT 1.200
Cloud Cloud Cloud Cloud Cloud Cloud
BKN 2.700
Cloud Cloud Cloud Cloud Cloud Cloud
BKN 3.800
METAR EDXW 231920Z AUTO 22011KT 9999 // SCT012/// BKN027/// BKN038/// 06/04 Q0992

METAR Butendiek - EKBU

该字段位于丹麦中。 该机场位于纬度55,01944和经度7,79972。 本场的ICAO机场代码为EKBU。 机场在Bremen FIR中。

该航空气象观测是针对Westerland Sylt Airport在2024年2月23日 20:20, 当地时间进行的。

机场观察

风向为220°,速度为11 kt。

可见度为10 km 或者更多。

有疏云,零星散落的云朵在1.200 ft的高度, 碎云在2.700 ft的高度 和 碎云在3.800 ft的高度。 破损或更高的上限为2.700 ft。

温度为6 °C,阵风为1 °C。 露点为4 °C,相对湿度为87%。 海平面上的气压为992 hPa (QNH)。

白天

今天,太阳从07:33升起,在17:50降落。 这适用于Butendiek,世界夏令时可能有所不同。 当地时间与世界标准时间之间的时差为+1 小时。 当前,没有夏令时有效。

公司介绍

我们没有关于这个机场的公司信息。

体会

到Vliegles.nl去找飞行课程,跳伞和其他飞行体验。 浏览页面,了解Butendiek附近所有可用的活动。 你也可以使用搜索功能来寻找你所在地附近的特定飞行课程、跳伞或其他飞行体验。

乌云

1.200 ft SCT 疏云,零星散落的云朵
2.700 ft BKN 碎云
3.800 ft BKN 碎云

温度 & 天气

温度 6 °C
露点 4 °C
相对湿度 87%
风寒 1 °C
Kp-index 1 (0-9)

白天

日出
07:31 (10:28)
中午
12:40
日落
17:48

小工具

你想在你的网站上有一个关于Butendiek的当前航空天气(METAR)的小部件吗?

显示HTML代码
?>